Time;durP1;ratioP1;P1;durP2;ratioP2;P2;SDS_P1;SDS_P2;PMS_P1;PMS_P2;Temp;Humidity;BMP_temperature;BMP_pressure;BME280_temperature;BME280_humidity;BME280_pressure;Samples;Min_cycle;Max_cycle;Signal;HPM_P1;HPM_P2
2021/10/26 00:02:23;;;;;;;;;;;;;;;0.04;61.32;100846.38;5016299;28;19921;-76
2021/10/26 00:04:49;;;;;;;;;;;;;;;0.05;62.30;100840.44;5016085;28;19956;-76
2021/10/26 00:07:15;;;;;;;;;;;;;;;0.08;61.58;100840.59;5014399;28;19975;-76
2021/10/26 00:09:41;;;;;;;;;;;;;;;0.07;62.18;100834.59;5015853;28;19948;-79
2021/10/26 00:12:08;;;;;;;;;;;;;;;0.07;62.21;100829.47;5019486;28;19933;-78
2021/10/26 00:14:37;;;;;;;;;;;;;;;0.06;61.82;100826.84;5015158;28;19921;-77
2021/10/26 00:17:03;;;;;;;;;;;;;;;0.07;61.66;100820.94;5014476;28;19921;-76
2021/10/26 00:19:28;;;;;;;;;;;;;;;0.06;62.48;100816.59;5014058;28;20016;-78
2021/10/26 00:21:54;;;;;;;;;;;;;;;0.05;62.20;100823.38;5014306;28;19921;-77
2021/10/26 00:24:19;;;;;;;;;;;;;;;0.09;62.11;100816.75;5015597;28;19991;-76
2021/10/26 00:26:45;;;;;;;;;;;;;;;0.07;62.22;100810.69;5017045;28;19929;-77
2021/10/26 00:29:14;;;;;;;;;;;;;;;0.08;62.44;100821.00;5015816;28;20384;-78
2021/10/26 00:31:41;;;;;;;;;;;;;;;0.08;62.45;100809.88;5015511;28;19932;-79
2021/10/26 00:34:06;;;;;;;;;;;;;;;0.08;62.33;100815.00;4997370;28;20019;-78
2021/10/26 00:36:32;;;;;;;;;;;;;;;0.08;62.42;100815.00;5013911;28;19980;-76
2021/10/26 00:38:58;;;;;;;;;;;;;;;0.06;62.80;100806.38;5015516;28;19921;-76
2021/10/26 00:41:23;;;;;;;;;;;;;;;0.03;62.01;100801.97;5014412;28;19921;-77
2021/10/26 00:43:50;;;;;;;;;;;;;;;0.04;62.54;100801.16;5014031;28;19925;-77
2021/10/26 00:46:25;;;;;;;;;;;;;;;0.04;62.68;100803.72;4998052;28;20472;-76
2021/10/26 00:48:51;;;;;;;;;;;;;;;0.05;63.02;100800.34;5014423;28;20265;-78
2021/10/26 00:51:17;;;;;;;;;;;;;;;0.06;63.07;100801.25;5014750;28;19933;-77
2021/10/26 00:53:43;;;;;;;;;;;;;;;0.06;63.16;100796.13;5013840;28;19921;-78
2021/10/26 00:56:08;;;;;;;;;;;;;;;0.03;63.35;100790.84;5013528;28;19922;-77
2021/10/26 00:58:34;;;;;;;;;;;;;;;0.03;63.01;100791.72;5012966;28;19921;-78
2021/10/26 01:01:00;;;;;;;;;;;;;;;0.02;63.29;100796.78;5013465;28;19968;-76
2021/10/26 01:03:27;;;;;;;;;;;;;;;0.03;63.14;100795.97;4996896;28;19921;-77
2021/10/26 01:05:54;;;;;;;;;;;;;;;0.04;63.52;100797.72;5012953;28;19922;-76
2021/10/26 01:08:22;;;;;;;;;;;;;;;0.01;63.16;100789.91;5013601;28;19921;-77
2021/10/26 01:10:51;;;;;;;;;;;;;;;0.01;63.54;100798.44;5013057;28;19925;-76
2021/10/26 01:13:17;;;;;;;;;;;;;;;0.00;63.71;100791.59;5014632;28;19927;-76
2021/10/26 01:15:43;;;;;;;;;;;;;;;0.04;63.32;100787.50;5021357;28;19922;-77
2021/10/26 01:18:26;;;;;;;;;;;;;;;0.04;63.21;100778.13;5003928;28;19925;-77
2021/10/26 01:20:53;;;;;;;;;;;;;;;0.04;63.62;100778.13;5014531;28;20016;-77
2021/10/26 01:23:19;;;;;;;;;;;;;;;0.04;63.04;100773.00;5013833;28;20412;-78
2021/10/26 01:25:45;;;;;;;;;;;;;;;0.04;63.23;100778.13;5013096;28;19926;-77
2021/10/26 01:28:16;;;;;;;;;;;;;;;0.05;63.33;100779.88;5032214;28;20031;-76
2021/10/26 01:30:42;;;;;;;;;;;;;;;0.06;63.87;100766.28;5016148;28;19991;-76
2021/10/26 01:33:43;;;;;;;;;;;;;;;0.05;63.98;100758.53;5014478;28;20016;-77
2021/10/26 01:36:15;;;;;;;;;;;;;;;0.05;63.48;100768.78;5013307;28;20415;-77
2021/10/26 01:38:40;;;;;;;;;;;;;;;0.06;64.23;100760.31;5012721;28;19979;-77
2021/10/26 01:41:07;;;;;;;;;;;;;;;0.03;64.28;100766.13;5012317;28;19960;-77
2021/10/26 01:43:32;;;;;;;;;;;;;;;0.03;64.33;100752.47;5012662;28;20397;-76
2021/10/26 01:45:58;;;;;;;;;;;;;;;0.03;64.34;100755.03;4995593;28;19960;-77
2021/10/26 01:48:32;;;;;;;;;;;;;;;0.02;63.80;100753.25;5013565;28;19965;-77
2021/10/26 01:50:58;;;;;;;;;;;;;;;0.03;64.05;100753.31;5012150;28;19972;-77
2021/10/26 01:53:26;;;;;;;;;;;;;;;0.02;63.92;100743.88;5012726;28;19921;-77
2021/10/26 01:55:52;;;;;;;;;;;;;;;0.01;64.57;100742.13;5011782;28;19921;-77
2021/10/26 01:58:18;;;;;;;;;;;;;;;0.02;64.30;100736.22;5012205;28;19944;-77
2021/10/26 02:01:06;;;;;;;;;;;;;;;0.04;64.76;100736.31;5011067;28;20340;-77
2021/10/26 02:03:32;;;;;;;;;;;;;;;0.03;64.75;100726.88;5012235;28;19925;-77
2021/10/26 02:05:58;;;;;;;;;;;;;;;0.03;64.41;100727.72;5010450;28;19921;-76
2021/10/26 02:08:23;;;;;;;;;;;;;;;0.05;64.71;100723.56;5012369;28;19921;-76
2021/10/26 02:10:49;;;;;;;;;;;;;;;0.07;65.12;100724.53;5011364;28;19925;-76
2021/10/26 02:13:14;;;;;;;;;;;;;;;0.10;64.68;100719.56;4995467;28;20401;-76
2021/10/26 02:15:41;;;;;;;;;;;;;;;0.09;64.69;100712.69;4995049;28;19922;-76
2021/10/26 02:18:07;;;;;;;;;;;;;;;0.10;64.94;100718.69;4978835;28;19921;-75
2021/10/26 02:20:34;;;;;;;;;;;;;;;0.09;65.29;100714.38;5011273;28;20036;-76
2021/10/26 02:23:02;;;;;;;;;;;;;;;0.09;65.20;100714.38;5011553;28;20010;-76
2021/10/26 02:25:27;;;;;;;;;;;;;;;0.08;64.93;100715.19;5010796;28;19930;-77
2021/10/26 02:27:53;;;;;;;;;;;;;;;0.05;65.28;100704.78;4978097;28;19968;-77
2021/10/26 02:30:19;;;;;;;;;;;;;;;0.06;65.14;100709.97;4979353;28;19921;-77
2021/10/26 02:32:45;;;;;;;;;;;;;;;0.07;65.30;100706.59;5011393;28;19983;-77
2021/10/26 02:35:12;;;;;;;;;;;;;;;0.08;65.37;100708.38;5012456;28;20385;-76
2021/10/26 02:37:37;;;;;;;;;;;;;;;0.08;64.98;100698.13;5010939;28;19960;-77
2021/10/26 02:40:04;;;;;;;;;;;;;;;0.09;65.30;100699.88;4978854;28;19972;-78
2021/10/26 02:42:29;;;;;;;;;;;;;;;0.07;64.89;100704.03;5010601;28;20023;-77
2021/10/26 02:44:55;;;;;;;;;;;;;;;0.08;64.87;100707.50;5010407;28;20424;-76
2021/10/26 02:47:21;;;;;;;;;;;;;;;0.06;64.90;100698.88;5011959;28;20317;-77
2021/10/26 02:49:48;;;;;;;;;;;;;;;0.05;64.85;100702.22;5011296;28;19975;-76
2021/10/26 02:52:14;;;;;;;;;;;;;;;0.06;65.12;100688.63;5010601;28;19926;-76
2021/10/26 02:54:40;;;;;;;;;;;;;;;0.05;65.74;100697.13;5011058;28;19980;-76
2021/10/26 02:57:05;;;;;;;;;;;;;;;0.05;64.90;100700.53;5010915;28;19922;-77
2021/10/26 02:59:31;;;;;;;;;;;;;;;0.05;66.04;100685.19;5010944;28;20064;-76
2021/10/26 03:01:58;;;;;;;;;;;;;;;0.05;66.03;100686.88;5010938;28;20020;-75
2021/10/26 03:04:25;;;;;;;;;;;;;;;0.05;65.32;100681.75;4994486;28;20427;-76
2021/10/26 03:06:51;;;;;;;;;;;;;;;0.05;65.62;100684.31;4994393;28;19921;-77
2021/10/26 03:09:16;;;;;;;;;;;;;;;0.05;66.10;100680.06;5012266;28;19921;-76
2021/10/26 03:11:42;;;;;;;;;;;;;;;0.06;66.15;100676.69;4995144;28;20009;-77
2021/10/26 03:14:08;;;;;;;;;;;;;;;0.06;66.06;100670.72;5011956;28;20036;-76
2021/10/26 03:16:34;;;;;;;;;;;;;;;0.06;66.23;100675.84;5012736;28;19921;-77
2021/10/26 03:19:04;;;;;;;;;;;;;;;0.07;66.24;100664.78;5012121;28;20317;-77
2021/10/26 03:21:30;;;;;;;;;;;;;;;0.07;65.68;100669.91;5003207;28;19928;-79
2021/10/26 03:23:55;;;;;;;;;;;;;;;0.06;66.19;100670.72;5027106;28;19925;-76
2021/10/26 03:26:21;;;;;;;;;;;;;;;0.08;66.46;100675.09;5014126;28;19932;-79
2021/10/26 03:28:46;;;;;;;;;;;;;;;0.07;66.35;100673.34;4980443;28;19943;-79
2021/10/26 03:31:13;;;;;;;;;;;;;;;0.07;66.20;100680.16;5011884;28;19932;-79
2021/10/26 03:34:08;;;;;;;;;;;;;;;0.04;66.25;100673.19;5012636;28;20388;-77
2021/10/26 03:36:34;;;;;;;;;;;;;;;0.04;66.11;100667.19;4981128;28;19952;-76
2021/10/26 03:39:00;;;;;;;;;;;;;;;0.03;66.08;100673.97;5013676;28;19928;-78
2021/10/26 03:41:25;;;;;;;;;;;;;;;0.02;66.42;100662.00;5011061;28;19944;-80
2021/10/26 03:44:24;;;;;;;;;;;;;;;0.01;66.51;100672.16;4995063;28;19971;-79
2021/10/26 03:47:19;;;;;;;;;;;;;;;-0.01;66.52;100661.88;5005863;28;20028;-78
2021/10/26 03:49:45;;;;;;;;;;;;;;;0.00;65.93;100668.75;5010603;28;20358;-79
2021/10/26 03:52:11;;;;;;;;;;;;;;;-0.03;65.89;100656.66;5010408;28;20336;-78
2021/10/26 03:54:59;;;;;;;;;;;;;;;-0.04;65.83;100649.78;5011583;28;19944;-78
2021/10/26 03:57:46;;;;;;;;;;;;;;;-0.04;66.39;100642.13;5010681;28;20007;-77
2021/10/26 04:00:12;;;;;;;;;;;;;;;-0.03;66.58;100653.25;5013743;28;19964;-78
2021/10/26 04:02:43;;;;;;;;;;;;;;;-0.04;66.30;100654.91;5011066;28;20008;-78
2021/10/26 04:08:20;;;;;;;;;;;;;;;0.00;66.01;100653.38;5010020;28;19922;-79
2021/10/26 04:10:50;;;;;;;;;;;;;;;0.04;66.24;100660.38;5013980;28;19937;-79
2021/10/26 04:13:16;;;;;;;;;;;;;;;0.04;66.28;100657.81;5013443;28;20362;-79
2021/10/26 04:15:42;;;;;;;;;;;;;;;0.07;66.79;100652.84;5017998;28;20294;-78
2021/10/26 04:18:10;;;;;;;;;;;;;;;0.07;66.60;100652.84;4998866;28;19975;-81
2021/10/26 04:20:36;;;;;;;;;;;;;;;0.11;66.82;100659.03;5014820;28;19930;-79
2021/10/26 04:23:02;;;;;;;;;;;;;;;0.14;66.56;100659.13;5001606;28;19921;-78
2021/10/26 04:25:28;;;;;;;;;;;;;;;0.18;67.03;100648.25;5022442;28;20154;-77
2021/10/26 04:27:54;;;;;;;;;;;;;;;0.22;66.79;100659.53;5019540;28;19932;-79
2021/10/26 04:30:21;;;;;;;;;;;;;;;0.32;65.96;100659.13;5014746;28;19921;-78
2021/10/26 04:32:48;;;;;;;;;;;;;;;0.42;66.87;100650.19;5014702;28;19922;-77
2021/10/26 04:35:13;;;;;;;;;;;;;;;0.49;66.56;100647.09;5015251;28;19926;-77
2021/10/26 04:37:40;;;;;;;;;;;;;;;0.57;66.42;100639.78;5017772;28;19928;-79
2021/10/26 04:40:07;;;;;;;;;;;;;;;0.71;66.14;100642.94;5014371;28;19929;-77
2021/10/26 04:42:38;;;;;;;;;;;;;;;0.86;66.28;100635.94;5013963;28;19945;-79
2021/10/26 04:45:05;;;;;;;;;;;;;;;1.05;65.92;100637.63;5012966;28;20020;-77
2021/10/26 04:47:34;;;;;;;;;;;;;;;1.42;66.09;100632.28;5016203;28;19927;-79
2021/10/26 04:50:00;;;;;;;;;;;;;;;1.98;66.04;100637.09;4996915;28;19921;-78
2021/10/26 04:52:26;;;;;;;;;;;;;;;2.37;65.28;100629.19;4981091;28;19975;-78
2021/10/26 04:54:51;;;;;;;;;;;;;;;2.71;64.77;100626.16;4980670;28;19921;-80
2021/10/26 04:57:17;;;;;;;;;;;;;;;3.06;64.72;100627.34;4996509;28;19959;-78
2021/10/26 05:00:11;;;;;;;;;;;;;;;3.88;64.41;100615.47;5012977;28;19972;-79
2021/10/26 05:02:37;;;;;;;;;;;;;;;4.56;63.23;100608.91;5015064;28;20322;-79
2021/10/26 05:05:04;;;;;;;;;;;;;;;4.75;62.50;100607.72;5013158;28;19987;-78
2021/10/26 05:07:30;;;;;;;;;;;;;;;4.74;62.18;100607.69;4998288;28;19945;-77
2021/10/26 05:09:56;;;;;;;;;;;;;;;4.57;61.55;100604.63;5011215;28;19928;-76
2021/10/26 05:12:21;;;;;;;;;;;;;;;4.32;60.88;100614.22;5012607;28;19933;-77
2021/10/26 05:14:47;;;;;;;;;;;;;;;3.98;61.47;100613.19;5012950;28;19949;-77
2021/10/26 05:17:34;;;;;;;;;;;;;;;3.78;61.40;100605.72;5016044;28;19921;-77
2021/10/26 05:20:20;;;;;;;;;;;;;;;3.84;61.56;100605.03;5011670;28;19996;-78
2021/10/26 05:23:10;;;;;;;;;;;;;;;4.09;61.34;100605.81;5013423;28;20468;-78
2021/10/26 05:25:52;;;;;;;;;;;;;;;4.20;61.14;100610.44;5014190;28;19997;-79
2021/10/26 05:28:22;;;;;;;;;;;;;;;4.39;60.62;100616.16;5028628;28;19928;-77
2021/10/26 05:30:48;;;;;;;;;;;;;;;4.60;60.24;100604.72;5023956;28;19925;-78
2021/10/26 05:33:14;;;;;;;;;;;;;;;4.98;59.76;100608.34;5016791;28;19944;-79
2021/10/26 05:35:39;;;;;;;;;;;;;;;5.13;59.41;100599.25;5016233;28;19922;-79
2021/10/26 05:38:05;;;;;;;;;;;;;;;5.08;59.81;100599.16;4981386;28;19921;-78
2021/10/26 05:40:30;;;;;;;;;;;;;;;5.18;59.60;100604.56;5014277;28;19927;-77
2021/10/26 05:42:56;;;;;;;;;;;;;;;5.45;59.34;100595.75;5013749;28;20350;-78
2021/10/26 05:45:21;;;;;;;;;;;;;;;5.77;58.92;100600.84;5013561;28;19956;-79
2021/10/26 05:47:48;;;;;;;;;;;;;;;5.97;58.10;100596.09;5014868;28;20459;-77
2021/10/26 05:50:15;;;;;;;;;;;;;;;6.36;56.87;100591.81;5013419;28;19928;-78
2021/10/26 05:52:40;;;;;;;;;;;;;;;6.94;56.67;100592.09;5001173;28;19921;-78
2021/10/26 05:55:06;;;;;;;;;;;;;;;7.24;56.28;100586.59;5023341;28;19921;-79
2021/10/26 05:57:32;;;;;;;;;;;;;;;7.70;56.36;100590.78;5021932;28;19960;-78
2021/10/26 05:59:58;;;;;;;;;;;;;;;8.13;55.38;100580.19;5021049;28;20630;-78
2021/10/26 06:02:24;;;;;;;;;;;;;;;8.47;54.69;100577.16;5020276;28;20016;-79
2021/10/26 06:04:51;;;;;;;;;;;;;;;8.59;54.25;100577.34;5021583;28;19921;-78
2021/10/26 06:07:16;;;;;;;;;;;;;;;8.69;53.78;100581.78;5025051;28;19965;-76
2021/10/26 06:09:42;;;;;;;;;;;;;;;8.82;52.84;100585.41;5006294;28;19978;-77
2021/10/26 06:12:11;;;;;;;;;;;;;;;8.97;52.76;100589.84;4989166;28;19989;-80
2021/10/26 06:14:36;;;;;;;;;;;;;;;9.45;52.38;100585.13;5031256;28;19913;-78
2021/10/26 06:17:02;;;;;;;;;;;;;;;9.92;51.67;100541.25;5035319;28;19914;-78
2021/10/26 06:19:32;;;;;;;;;;;;;;;10.23;50.82;100588.22;5035356;28;19929;-78
2021/10/26 06:21:57;;;;;;;;;;;;;;;10.59;50.38;100578.00;5035144;28;19973;-78
2021/10/26 06:24:23;;;;;;;;;;;;;;;11.06;49.88;100576.38;5034525;28;19929;-78
2021/10/26 06:26:50;;;;;;;;;;;;;;;10.93;48.45;100573.75;5018561;28;19913;-78
2021/10/26 06:29:15;;;;;;;;;;;;;;;10.68;48.70;100578.03;4991933;28;19933;-78
2021/10/26 06:31:59;;;;;;;;;;;;;;;10.81;48.07;100576.34;5013811;28;19925;-79
2021/10/26 06:34:25;;;;;;;;;;;;;;;11.18;48.42;100568.59;5012440;28;19922;-77
2021/10/26 06:36:51;;;;;;;;;;;;;;;11.80;47.61;100568.56;5011793;28;19944;-79
2021/10/26 06:39:21;;;;;;;;;;;;;;;12.67;46.51;100568.28;5011871;28;20409;-78
2021/10/26 06:41:47;;;;;;;;;;;;;;;12.69;45.08;100561.31;5014975;28;19925;-80
2021/10/26 06:44:31;;;;;;;;;;;;;;;12.33;44.67;100555.41;5013219;28;19965;-77
2021/10/26 06:47:18;;;;;;;;;;;;;;;12.44;45.49;100557.97;5012986;28;19988;-77
2021/10/26 06:50:05;;;;;;;;;;;;;;;12.70;45.14;100552.59;5018863;28;19928;-79
2021/10/26 06:52:53;;;;;;;;;;;;;;;12.71;43.88;100543.91;5010579;28;19969;-79
2021/10/26 06:55:19;;;;;;;;;;;;;;;12.88;43.61;100543.81;5013896;28;19921;-78
2021/10/26 06:58:03;;;;;;;;;;;;;;;13.90;43.39;100541.22;5014123;28;20365;-77
2021/10/26 07:00:47;;;;;;;;;;;;;;;15.16;42.33;100527.31;5011613;28;19951;-78
2021/10/26 07:03:31;;;;;;;;;;;;;;;15.79;41.00;100531.47;5015310;28;19921;-77
2021/10/26 07:06:22;;;;;;;;;;;;;;;15.19;39.04;100529.91;5014295;28;19922;-78
2021/10/26 07:08:57;;;;;;;;;;;;;;;14.56;40.38;100534.31;5015040;28;19925;-77
2021/10/26 07:11:43;;;;;;;;;;;;;;;13.79;40.19;100500.31;5016974;28;19925;-78
2021/10/26 07:14:11;;;;;;;;;;;;;;;13.91;41.75;100522.03;5017878;28;19927;-76
2021/10/26 07:16:40;;;;;;;;;;;;;;;14.24;40.70;100528.59;5015820;28;19949;-76
2021/10/26 07:19:05;;;;;;;;;;;;;;;14.44;39.91;100517.88;5016979;28;19933;-77
2021/10/26 07:21:54;;;;;;;;;;;;;;;14.87;40.63;100507.72;5018083;28;19921;-76
2021/10/26 07:24:38;;;;;;;;;;;;;;;15.43;39.49;100510.28;5015543;28;19921;-79
2021/10/26 07:27:10;;;;;;;;;;;;;;;15.52;38.85;100507.47;5014216;28;20393;-76
2021/10/26 07:29:39;;;;;;;;;;;;;;;14.95;38.67;100499.72;5013811;28;19929;-78
2021/10/26 07:32:05;;;;;;;;;;;;;;;14.63;39.33;100516.75;4997873;28;19929;-78
2021/10/26 07:34:32;;;;;;;;;;;;;;;15.09;39.10;100507.38;5001191;28;20452;-77
2021/10/26 07:36:58;;;;;;;;;;;;;;;15.40;37.91;100502.47;5020307;28;19922;-77
2021/10/26 07:41:56;;;;;;;;;;;;;;;16.17;36.76;100492.28;5014100;28;19979;-76
2021/10/26 07:45:00;;;;;;;;;;;;;;;15.90;36.47;100506.81;5016635;28;19921;-78
2021/10/26 07:47:28;;;;;;;;;;;;;;;15.77;36.21;100500.94;5017402;28;19925;-79
2021/10/26 07:49:56;;;;;;;;;;;;;;;16.31;37.45;100505.13;4985502;28;19928;-78
2021/10/26 07:52:24;;;;;;;;;;;;;;;16.81;36.21;100486.47;5000532;28;19925;-76
2021/10/26 07:55:03;;;;;;;;;;;;;;;17.28;35.42;100483.59;5016987;28;20396;-74
2021/10/26 07:57:30;;;;;;;;;;;;;;;17.12;34.99;100495.41;5016853;28;20397;-76
2021/10/26 07:59:56;;;;;;;;;;;;;;;17.42;35.06;100477.97;5017561;28;19944;-79
2021/10/26 08:02:22;;;;;;;;;;;;;;;17.09;34.26;100474.44;5017784;28;19921;-78
2021/10/26 08:05:21;;;;;;;;;;;;;;;16.85;33.44;100475.00;5005845;28;19928;-78
2021/10/26 08:07:47;;;;;;;;;;;;;;;17.55;35.46;100469.72;4985119;28;19926;-76
2021/10/26 08:10:14;;;;;;;;;;;;;;;19.03;33.42;100466.25;5017426;28;19921;-78
2021/10/26 08:12:41;;;;;;;;;;;;;;;19.80;32.73;100471.47;5017664;28;19934;-77
2021/10/26 08:15:08;;;;;;;;;;;;;;;20.27;31.34;100454.78;5015747;28;19925;-80
2021/10/26 08:17:34;;;;;;;;;;;;;;;19.21;30.60;100433.97;5017038;28;20459;-77
2021/10/26 08:20:00;;;;;;;;;;;;;;;18.31;32.51;100470.25;5016071;28;19923;-79
2021/10/26 08:22:27;;;;;;;;;;;;;;;17.88;33.33;100474.97;5017056;28;20016;-78
2021/10/26 08:24:58;;;;;;;;;;;;;;;18.26;32.41;100472.16;5016112;28;19929;-81
2021/10/26 08:27:26;;;;;;;;;;;;;;;18.71;32.38;100453.19;5016244;28;19957;-79
2021/10/26 08:35:16;;;;;;;;;;;;;;;18.09;32.04;100452.47;5016755;28;19921;-78
2021/10/26 08:37:50;;;;;;;;;;;;;;;18.56;32.15;100462.44;5023525;28;19921;-81
2021/10/26 08:40:17;;;;;;;;;;;;;;;18.04;31.77;100460.47;5019870;28;19948;-81
2021/10/26 08:42:45;;;;;;;;;;;;;;;17.67;31.37;100466.78;5015235;28;19925;-79
2021/10/26 08:45:11;;;;;;;;;;;;;;;17.08;32.17;100463.06;5015675;28;20338;-79
2021/10/26 08:47:41;;;;;;;;;;;;;;;17.18;32.85;100463.69;5015310;28;19947;-77
2021/10/26 08:50:26;;;;;;;;;;;;;;;17.45;32.14;100464.72;5015479;28;19929;-78
2021/10/26 08:52:51;;;;;;;;;;;;;;;17.65;31.88;100452.78;5014829;28;19921;-78
2021/10/26 08:55:39;;;;;;;;;;;;;;;17.54;32.11;100455.72;5020266;28;19921;-77
2021/10/26 08:58:24;;;;;;;;;;;;;;;17.13;32.03;100453.28;5024360;28;19921;-77
2021/10/26 09:00:51;;;;;;;;;;;;;;;16.97;31.92;100454.59;5024691;28;19921;-77
2021/10/26 09:03:17;;;;;;;;;;;;;;;16.88;31.55;100460.91;5016855;28;19936;-78
2021/10/26 09:05:44;;;;;;;;;;;;;;;16.68;32.32;100450.84;5015413;28;19940;-78
2021/10/26 09:08:11;;;;;;;;;;;;;;;16.65;32.34;100438.66;5017242;28;19929;-76
2021/10/26 09:10:41;;;;;;;;;;;;;;;16.67;32.46;100443.88;5014341;28;19921;-81
2021/10/26 09:16:50;;;;;;;;;;;;;;;17.09;31.68;100441.13;5013882;28;19944;-80
2021/10/26 09:19:39;;;;;;;;;;;;;;;17.34;32.06;100442.25;5015623;28;19979;-79
2021/10/26 09:22:06;;;;;;;;;;;;;;;17.57;31.12;100441.59;5015286;28;20340;-78
2021/10/26 09:24:32;;;;;;;;;;;;;;;17.06;31.67;100433.31;5015437;28;19964;-79
2021/10/26 09:27:00;;;;;;;;;;;;;;;17.10;31.91;100429.69;5014952;28;19972;-78
2021/10/26 09:29:29;;;;;;;;;;;;;;;17.19;31.81;100430.38;5016211;28;20111;-77
2021/10/26 09:32:08;;;;;;;;;;;;;;;17.05;31.73;100422.84;4998610;28;19933;-80
2021/10/26 09:34:39;;;;;;;;;;;;;;;16.73;31.68;100420.09;5015696;28;20297;-80
2021/10/26 09:37:05;;;;;;;;;;;;;;;16.21;31.66;100423.06;4981443;28;19928;-78
2021/10/26 09:39:32;;;;;;;;;;;;;;;16.26;32.22;100421.16;5013847;28;19970;-78
2021/10/26 09:42:03;;;;;;;;;;;;;;;16.62;31.94;100422.97;5021272;28;20347;-78
2021/10/26 09:44:32;;;;;;;;;;;;;;;16.33;30.81;100405.28;5017746;28;20401;-80
2021/10/26 09:46:59;;;;;;;;;;;;;;;16.10;32.72;100412.78;5016631;28;19921;-80
2021/10/26 09:49:29;;;;;;;;;;;;;;;16.09;31.26;100410.19;5017742;28;20305;-79
2021/10/26 09:52:13;;;;;;;;;;;;;;;16.19;32.04;100403.84;5017203;28;19926;-79
2021/10/26 09:54:40;;;;;;;;;;;;;;;16.43;32.28;100391.06;5016460;28;19947;-79
2021/10/26 09:57:07;;;;;;;;;;;;;;;15.89;31.93;100387.88;5018420;28;19925;-80
2021/10/26 09:59:37;;;;;;;;;;;;;;;15.24;32.42;100383.00;4986212;28;19987;-81
2021/10/26 10:02:03;;;;;;;;;;;;;;;14.57;33.00;100387.63;5015480;28;19921;-78
2021/10/26 10:04:32;;;;;;;;;;;;;;;14.06;33.30;100387.53;5015927;28;19921;-81
2021/10/26 10:06:59;;;;;;;;;;;;;;;13.53;34.00;100383.84;4983414;28;19921;-78
2021/10/26 10:09:25;;;;;;;;;;;;;;;13.26;34.47;100384.97;5018226;28;19925;-78
2021/10/26 10:12:05;;;;;;;;;;;;;;;13.10;34.64;100379.91;4998380;28;19925;-76
2021/10/26 10:14:35;;;;;;;;;;;;;;;12.66;34.73;100373.34;5018511;28;19984;-79
2021/10/26 10:17:04;;;;;;;;;;;;;;;12.27;35.53;100368.41;5003231;28;19928;-78
2021/10/26 10:19:33;;;;;;;;;;;;;;;12.07;35.73;100367.66;4999607;28;19925;-79
2021/10/26 10:22:00;;;;;;;;;;;;;;;11.79;35.95;100367.81;5014561;28;19956;-76
2021/10/26 10:24:28;;;;;;;;;;;;;;;11.71;36.29;100365.22;5015806;28;19944;-79
2021/10/26 10:26:54;;;;;;;;;;;;;;;11.59;36.52;100355.69;5015739;28;19925;-79
2021/10/26 10:29:20;;;;;;;;;;;;;;;11.48;36.53;100362.72;5015251;28;19929;-78
2021/10/26 10:31:47;;;;;;;;;;;;;;;11.30;36.89;100354.09;5014929;28;19937;-77
2021/10/26 10:34:16;;;;;;;;;;;;;;;11.19;36.95;100345.41;5014985;28;19936;-77
2021/10/26 10:36:42;;;;;;;;;;;;;;;11.09;37.49;100357.59;4980553;28;20055;-77
2021/10/26 10:39:08;;;;;;;;;;;;;;;11.06;37.00;100348.06;5015949;28;19961;-78
2021/10/26 10:41:37;;;;;;;;;;;;;;;11.01;37.55;100352.41;5015485;28;19928;-78
2021/10/26 10:44:05;;;;;;;;;;;;;;;10.93;37.37;100346.34;4983893;28;19921;-79
2021/10/26 10:46:40;;;;;;;;;;;;;;;10.83;37.53;100335.06;4981882;28;19921;-78
2021/10/26 10:49:22;;;;;;;;;;;;;;;10.72;38.24;100335.09;5017652;28;19922;-79
2021/10/26 10:51:54;;;;;;;;;;;;;;;10.61;38.14;100342.91;5017293;28;19925;-80
2021/10/26 10:54:36;;;;;;;;;;;;;;;10.51;38.33;100336.84;5018378;28;20023;-77
2021/10/26 10:57:21;;;;;;;;;;;;;;;10.42;38.55;100339.44;5012759;28;19922;-78
2021/10/26 10:59:53;;;;;;;;;;;;;;;10.40;38.79;100328.19;5013971;28;20488;-79
2021/10/26 11:02:22;;;;;;;;;;;;;;;10.31;38.73;100317.72;5012721;28;20408;-75
2021/10/26 11:04:48;;;;;;;;;;;;;;;10.21;38.96;100324.66;5012359;28;19968;-80
2021/10/26 11:07:14;;;;;;;;;;;;;;;10.19;38.97;100306.47;5014573;28;19925;-79
2021/10/26 11:09:41;;;;;;;;;;;;;;;10.16;39.36;100303.84;5013720;28;20327;-78
2021/10/26 11:12:09;;;;;;;;;;;;;;;10.11;39.00;100292.56;5013172;28;19929;-79
2021/10/26 11:14:42;;;;;;;;;;;;;;;9.98;39.28;100294.28;5012695;28;20379;-79
2021/10/26 11:17:27;;;;;;;;;;;;;;;9.95;39.25;100297.75;5012151;28;20299;-75
2021/10/26 11:19:56;;;;;;;;;;;;;;;9.83;39.31;100292.53;5016565;28;19921;-76
2021/10/26 11:22:40;;;;;;;;;;;;;;;9.72;39.30;100292.50;5018823;28;19921;-76
2021/10/26 11:25:24;;;;;;;;;;;;;;;9.66;39.74;100295.09;5016118;28;19937;-78
2021/10/26 11:27:50;;;;;;;;;;;;;;;9.63;39.69;100293.34;4999078;28;19921;-79
2021/10/26 11:30:39;;;;;;;;;;;;;;;9.64;39.76;100302.88;5017016;28;20317;-78
2021/10/26 11:33:13;;;;;;;;;;;;;;;9.63;39.82;100293.34;4993622;28;19929;-76
2021/10/26 11:35:42;;;;;;;;;;;;;;;9.60;39.93;100292.47;5017823;28;20062;-79
2021/10/26 11:38:08;;;;;;;;;;;;;;;9.58;39.83;100295.09;5015476;28;19980;-76
2021/10/26 11:40:34;;;;;;;;;;;;;;;9.57;39.84;100295.06;5015766;28;19922;-80
2021/10/26 11:43:00;;;;;;;;;;;;;;;9.52;40.20;100282.06;5018173;28;19929;-77
2021/10/26 11:45:26;;;;;;;;;;;;;;;9.54;40.04;100287.25;5034467;28;19928;-78
2021/10/26 11:47:51;;;;;;;;;;;;;;;9.47;40.12;100283.78;5022638;28;19968;-76
2021/10/26 11:50:22;;;;;;;;;;;;;;;9.44;40.48;100275.97;5016601;28;19983;-79
2021/10/26 11:52:48;;;;;;;;;;;;;;;9.36;40.45;100273.34;5016377;28;19929;-79
2021/10/26 11:55:26;;;;;;;;;;;;;;;9.37;40.54;100276.81;5016038;28;19922;-77
2021/10/26 11:57:52;;;;;;;;;;;;;;;9.32;40.29;100272.47;5018102;28;20365;-77
2021/10/26 12:00:23;;;;;;;;;;;;;;;9.23;40.58;100271.56;4986424;28;19921;-78
2021/10/26 12:02:49;;;;;;;;;;;;;;;9.11;40.71;100277.56;5016358;28;19975;-78
2021/10/26 12:05:19;;;;;;;;;;;;;;;9.02;40.92;100278.41;5017837;28;19940;-77
2021/10/26 12:07:48;;;;;;;;;;;;;;;8.95;40.90;100277.47;5016822;28;19948;-78
2021/10/26 12:10:15;;;;;;;;;;;;;;;8.88;40.83;100280.91;5016401;28;20341;-77
2021/10/26 12:12:40;;;;;;;;;;;;;;;8.85;40.91;100279.16;5017343;28;19925;-79
2021/10/26 12:15:08;;;;;;;;;;;;;;;8.82;41.02;100283.47;5015268;28;19972;-77
2021/10/26 12:17:35;;;;;;;;;;;;;;;8.76;41.06;100270.44;5015675;28;19922;-78
2021/10/26 12:20:08;;;;;;;;;;;;;;;8.69;41.21;100278.22;5015075;28;19928;-78
2021/10/26 12:22:41;;;;;;;;;;;;;;;8.64;41.16;100266.94;5015382;28;19925;-76
2021/10/26 12:25:16;;;;;;;;;;;;;;;8.55;41.47;100275.53;4982748;28;19921;-77
2021/10/26 12:27:46;;;;;;;;;;;;;;;8.48;41.47;100276.31;4984541;28;19928;-79
2021/10/26 12:30:12;;;;;;;;;;;;;;;8.45;41.32;100271.09;4999275;28;20019;-77
2021/10/26 12:32:40;;;;;;;;;;;;;;;8.41;41.54;100262.41;4986921;28;19969;-76
2021/10/26 12:35:09;;;;;;;;;;;;;;;8.35;41.35;100266.69;5020102;28;19994;-79
2021/10/26 12:37:36;;;;;;;;;;;;;;;8.32;41.40;100274.44;5029553;28;19922;-77
2021/10/26 12:40:19;;;;;;;;;;;;;;;8.29;41.33;100280.47;5017131;28;19929;-78
2021/10/26 12:42:46;;;;;;;;;;;;;;;8.26;41.35;100268.34;5019716;28;19921;-77
2021/10/26 12:45:14;;;;;;;;;;;;;;;8.25;41.48;100271.81;5018998;28;19928;-79
2021/10/26 12:47:59;;;;;;;;;;;;;;;8.24;41.47;100264.88;5003958;28;20048;-78
2021/10/26 12:50:30;;;;;;;;;;;;;;;8.23;41.44;100268.31;5020764;28;20012;-78
2021/10/26 12:53:14;;;;;;;;;;;;;;;8.23;41.67;100268.31;5018967;28;19951;-76
2021/10/26 12:56:02;;;;;;;;;;;;;;;8.23;41.63;100259.69;5031794;28;19925;-76
2021/10/26 12:58:36;;;;;;;;;;;;;;;8.21;41.77;100262.25;5033875;28;19996;-75
2021/10/26 13:01:03;;;;;;;;;;;;;;;8.19;41.81;100257.94;5029796;28;19922;-76
2021/10/26 13:03:29;;;;;;;;;;;;;;;8.13;41.71;100258.75;5027026;28;19925;-77
2021/10/26 13:06:04;;;;;;;;;;;;;;;8.07;41.79;100264.72;5025845;28;19921;-77
2021/10/26 13:08:30;;;;;;;;;;;;;;;8.02;42.00;100255.19;5025586;28;19944;-76
2021/10/26 13:11:21;;;;;;;;;;;;;;;7.97;41.93;100257.75;4985523;28;19925;-77
2021/10/26 13:14:05;;;;;;;;;;;;;;;7.90;42.21;100256.81;5016022;28;19975;-79